Time,TemperatureF,DewpointF,PressureIn,WindDirection,WindDirectionDegrees,WindSpeedMPH,WindSpeedGustMPH,Humidity,HourlyPrecipIn,Conditions,Clouds,dailyrainin,SoftwareType,DateUTC
2013-02-09 00:02:00,32.7,31.1,30.01,WNW,290,0.0,0.0,94,0.00,,,0.24,meteohub,2013-02-09 08:02:00,
2013-02-09 00:07:00,32.7,30.9,30.01,WNW,290,0.0,0.0,93,0.00,,,0.00,meteohub,2013-02-09 08:07:00,
2013-02-09 00:13:00,32.7,30.9,30.02,WNW,290,0.0,0.0,93,0.00,,,0.00,meteohub,2013-02-09 08:13:00,
2013-02-09 00:18:00,32.5,30.9,30.01,WNW,290,0.0,0.0,94,0.00,,,0.00,meteohub,2013-02-09 08:18:00,
2013-02-09 00:23:00,32.7,31.1,30.01,WNW,290,0.0,0.0,94,0.00,,,0.00,meteohub,2013-02-09 08:23:00,
2013-02-09 00:28:00,32.7,31.1,30.01,WNW,290,0.0,0.0,94,0.00,,,0.00,meteohub,2013-02-09 08:28:00,
2013-02-09 00:33:00,32.7,31.1,30.01,WNW,290,0.0,0.0,94,0.00,,,0.00,meteohub,2013-02-09 08:33:00,
2013-02-09 00:38:00,32.5,30.9,30.01,WNW,290,0.0,0.0,94,0.01,,,0.01,meteohub,2013-02-09 08:38:00,
2013-02-09 00:43:00,32.5,30.9,30.01,WNW,290,0.0,0.0,94,0.01,,,0.01,meteohub,2013-02-09 08:43:00,
2013-02-09 00:48:00,32.5,30.9,30.01,WNW,290,0.0,0.0,94,0.01,,,0.01,meteohub,2013-02-09 08:48:00,
2013-02-09 00:53:00,32.5,30.9,30.01,WNW,290,0.0,0.0,94,0.01,,,0.01,meteohub,2013-02-09 08:53:00,
2013-02-09 00:58:00,32.4,30.6,30.01,WNW,290,0.0,0.0,93,0.01,,,0.01,meteohub,2013-02-09 08:58:00,
2013-02-09 01:03:00,32.4,30.7,30.01,WNW,290,0.0,0.0,94,0.01,,,0.01,meteohub,2013-02-09 09:03:00,
2013-02-09 01:08:00,32.2,30.6,30.01,WNW,290,0.0,0.0,94,0.01,,,0.01,meteohub,2013-02-09 09:08:00,
2013-02-09 01:13:00,31.8,30.0,30.02,WNW,290,0.0,0.0,93,0.01,,,0.01,meteohub,2013-02-09 09:13:00,
2013-02-09 01:18:00,31.6,29.8,30.01,WNW,290,0.0,0.0,93,0.01,,,0.01,meteohub,2013-02-09 09:18:00,
2013-02-09 01:23:00,31.6,30.2,30.01,WNW,290,0.0,1.0,94,0.01,,,0.01,meteohub,2013-02-09 09:23:00,
2013-02-09 01:28:00,31.8,30.4,30.01,WNW,290,0.0,1.0,94,0.01,,,0.01,meteohub,2013-02-09 09:28:00,
2013-02-09 01:33:00,31.6,30.2,30.01,WNW,290,0.0,1.0,94,0.00,,,0.01,meteohub,2013-02-09 09:33:00,
2013-02-09 01:38:00,31.5,30.0,30.01,WNW,290,0.0,0.0,94,0.00,,,0.01,meteohub,2013-02-09 09:38:00,
2013-02-09 01:43:00,32.2,30.9,30.01,WNW,290,0.0,0.0,95,0.00,,,0.01,meteohub,2013-02-09 09:43:00,
2013-02-09 01:48:00,32.4,30.7,30.01,WNW,290,0.0,0.0,94,0.00,,,0.01,meteohub,2013-02-09 09:48:00,
2013-02-09 01:53:00,32.2,30.6,30.01,WNW,290,0.0,0.0,94,0.00,,,0.01,meteohub,2013-02-09 09:53:00,
2013-02-09 01:58:00,31.8,30.4,30.01,WNW,290,0.0,0.0,94,0.00,,,0.01,meteohub,2013-02-09 09:58:00,
2013-02-09 02:03:00,31.6,30.2,30.01,WNW,290,0.0,1.0,94,0.00,,,0.01,meteohub,2013-02-09 10:03:00,
2013-02-09 02:08:00,32.0,30.6,30.01,WNW,290,0.0,1.0,94,0.00,,,0.01,meteohub,2013-02-09 10:08:00,
2013-02-09 02:13:00,32.5,31.3,30.01,WNW,290,0.0,1.0,95,0.00,,,0.01,meteohub,2013-02-09 10:13:00,
2013-02-09 02:18:00,32.7,31.5,30.01,WNW,290,0.0,1.0,95,0.00,,,0.01,meteohub,2013-02-09 10:18:00,
2013-02-09 02:23:00,33.3,32.0,30.01,WNW,290,1.0,1.0,95,0.00,,,0.01,meteohub,2013-02-09 10:23:00,
2013-02-09 02:28:00,33.4,32.2,30.01,WNW,290,0.0,2.0,95,0.00,,,0.01,meteohub,2013-02-09 10:28:00,
2013-02-09 02:33:00,33.6,32.4,30.01,WNW,290,0.0,2.0,95,0.00,,,0.01,meteohub,2013-02-09 10:33:00,
2013-02-09 02:38:00,33.8,32.5,30.01,WNW,290,0.0,2.0,95,0.00,,,0.01,meteohub,2013-02-09 10:38:00,
2013-02-09 02:43:00,33.6,32.0,30.01,WNW,290,0.0,2.0,94,0.00,,,0.01,meteohub,2013-02-09 10:43:00,
2013-02-09 02:48:00,33.4,31.8,30.01,WNW,290,0.0,2.0,94,0.00,,,0.01,meteohub,2013-02-09 10:48:00,
2013-02-09 02:53:00,32.9,31.1,30.01,WNW,290,0.0,0.0,93,0.00,,,0.01,meteohub,2013-02-09 10:53:00,
2013-02-09 02:58:00,32.5,30.7,30.01,WNW,290,0.0,0.0,93,0.00,,,0.01,meteohub,2013-02-09 10:58:00,
2013-02-09 03:03:00,32.0,30.2,30.01,WNW,290,0.0,0.0,93,0.00,,,0.01,meteohub,2013-02-09 11:03:00,
2013-02-09 03:08:00,31.6,29.8,30.02,WNW,290,0.0,0.0,93,0.00,,,0.01,meteohub,2013-02-09 11:08:00,
2013-02-09 03:13:00,31.6,29.8,30.02,WNW,290,0.0,0.0,93,0.00,,,0.01,meteohub,2013-02-09 11:13:00,
2013-02-09 03:18:00,31.6,30.2,30.02,WNW,290,0.0,0.0,94,0.00,,,0.01,meteohub,2013-02-09 11:18:00,
2013-02-09 03:23:00,31.6,30.2,30.02,WNW,290,0.0,0.0,94,0.00,,,0.01,meteohub,2013-02-09 11:23:00,
2013-02-09 03:28:00,31.5,30.0,30.02,WNW,290,0.0,1.0,94,0.00,,,0.01,meteohub,2013-02-09 11:28:00,
2013-02-09 03:33:00,31.3,29.8,30.02,WNW,290,0.0,1.0,94,0.00,,,0.01,meteohub,2013-02-09 11:33:00,
2013-02-09 03:38:00,31.5,30.0,30.02,WNW,290,0.0,0.0,94,0.00,,,0.01,meteohub,2013-02-09 11:38:00,
2013-02-09 03:43:00,32.4,31.1,30.01,WNW,290,0.0,1.0,95,0.00,,,0.01,meteohub,2013-02-09 11:43:00,
2013-02-09 03:48:00,32.9,31.6,30.02,WNW,296,0.0,1.0,95,0.00,,,0.01,meteohub,2013-02-09 11:48:00,
2013-02-09 03:53:00,32.9,31.3,30.02,WNW,296,0.0,2.0,94,0.00,,,0.01,meteohub,2013-02-09 11:53:00,
2013-02-09 03:58:00,32.9,31.3,30.02,WNW,296,0.0,2.0,94,0.00,,,0.01,meteohub,2013-02-09 11:58:00,
2013-02-09 04:03:00,32.7,31.1,30.02,WNW,296,0.0,1.0,94,0.00,,,0.01,meteohub,2013-02-09 12:03:00,
2013-02-09 04:08:00,32.7,31.1,30.02,WNW,296,0.0,1.0,94,0.00,,,0.01,meteohub,2013-02-09 12:08:00,
2013-02-09 04:13:00,32.4,30.7,30.02,WNW,296,0.0,1.0,94,0.00,,,0.01,meteohub,2013-02-09 12:13:00,
2013-02-09 04:18:00,32.2,30.6,30.03,WNW,296,0.0,1.0,94,0.00,,,0.01,meteohub,2013-02-09 12:18:00,
2013-02-09 04:23:00,31.8,30.0,30.03,WNW,296,0.0,0.0,93,0.00,,,0.01,meteohub,2013-02-09 12:23:00,
2013-02-09 04:28:00,31.5,29.7,30.02,WNW,296,0.0,0.0,93,0.00,,,0.01,meteohub,2013-02-09 12:28:00,
2013-02-09 04:33:00,31.5,29.7,30.02,WNW,296,0.0,0.0,93,0.00,,,0.01,meteohub,2013-02-09 12:33:00,
2013-02-09 04:38:00,31.5,30.0,30.02,WNW,296,0.0,0.0,94,0.00,,,0.01,meteohub,2013-02-09 12:38:00,
2013-02-09 04:43:00,31.3,29.8,30.03,WNW,296,0.0,0.0,94,0.00,,,0.01,meteohub,2013-02-09 12:43:00,
2013-02-09 04:48:00,31.3,29.8,30.02,WNW,296,0.0,0.0,94,0.00,,,0.01,meteohub,2013-02-09 12:48:00,
2013-02-09 04:53:00,30.9,29.1,30.02,WNW,296,0.0,0.0,93,0.00,,,0.01,meteohub,2013-02-09 12:53:00,
2013-02-09 04:58:00,30.7,28.9,30.02,WNW,296,0.0,0.0,93,0.00,,,0.01,meteohub,2013-02-09 12:58:00,
2013-02-09 05:03:00,30.7,29.3,30.02,WNW,296,0.0,0.0,94,0.00,,,0.01,meteohub,2013-02-09 13:03:00,
2013-02-09 05:08:00,30.7,29.3,30.02,WNW,296,0.0,0.0,94,0.00,,,0.01,meteohub,2013-02-09 13:08:00,
2013-02-09 05:13:00,30.7,29.3,30.02,WNW,297,0.0,0.0,94,0.00,,,0.01,meteohub,2013-02-09 13:13:00,
2013-02-09 05:18:00,30.7,29.3,30.02,WNW,296,0.0,0.0,94,0.00,,,0.01,meteohub,2013-02-09 13:18:00,
2013-02-09 05:23:00,30.7,29.3,30.02,WNW,296,0.0,0.0,94,0.00,,,0.01,meteohub,2013-02-09 13:23:00,
2013-02-09 05:28:00,30.7,29.3,30.03,WNW,296,0.0,0.0,94,0.00,,,0.01,meteohub,2013-02-09 13:28:00,
2013-02-09 05:33:00,30.6,29.1,30.03,WNW,296,0.0,0.0,94,0.00,,,0.01,meteohub,2013-02-09 13:33:00,
2013-02-09 05:38:00,30.6,29.1,30.03,WNW,296,0.0,0.0,94,0.00,,,0.01,meteohub,2013-02-09 13:38:00,
2013-02-09 05:43:00,30.7,29.3,30.03,WNW,296,0.0,0.0,94,0.00,,,0.01,meteohub,2013-02-09 13:43:00,
2013-02-09 05:48:00,30.7,29.3,30.03,WNW,296,0.0,0.0,94,0.00,,,0.01,meteohub,2013-02-09 13:48:00,
2013-02-09 05:53:00,30.7,29.3,30.03,WNW,296,0.0,0.0,94,0.00,,,0.01,meteohub,2013-02-09 13:53:00,
2013-02-09 05:58:00,30.7,29.3,30.04,WNW,296,0.0,0.0,94,0.00,,,0.01,meteohub,2013-02-09 13:58:00,
2013-02-09 06:03:00,30.7,29.3,30.04,WNW,296,0.0,1.0,94,0.00,,,0.01,meteohub,2013-02-09 14:03:00,
2013-02-09 06:08:00,30.7,29.3,30.04,WNW,296,0.0,1.0,94,0.00,,,0.01,meteohub,2013-02-09 14:08:00,
2013-02-09 06:13:00,30.6,29.1,30.04,WNW,296,0.0,1.0,94,0.00,,,0.01,meteohub,2013-02-09 14:13:00,
2013-02-09 06:18:00,30.2,28.8,30.04,WNW,296,0.0,0.0,94,0.00,,,0.01,meteohub,2013-02-09 14:18:00,
2013-02-09 06:23:00,30.2,28.8,30.04,WNW,297,0.0,0.0,94,0.00,,,0.01,meteohub,2013-02-09 14:23:00,
2013-02-09 06:28:00,30.0,28.6,30.04,WNW,296,0.0,0.0,94,0.00,,,0.01,meteohub,2013-02-09 14:28:00,
2013-02-09 06:33:00,29.8,28.0,30.04,WNW,296,0.0,0.0,93,0.00,,,0.01,meteohub,2013-02-09 14:33:00,
2013-02-09 06:38:00,29.7,28.2,30.04,WNW,296,0.0,1.0,94,0.00,,,0.01,meteohub,2013-02-09 14:38:00,
2013-02-09 06:43:00,29.5,28.0,30.04,WNW,296,0.0,1.0,94,0.00,,,0.01,meteohub,2013-02-09 14:43:00,
2013-02-09 06:48:00,29.7,28.2,30.04,WNW,296,0.0,1.0,94,0.00,,,0.01,meteohub,2013-02-09 14:48:00,
2013-02-09 06:53:00,29.7,28.2,30.05,WNW,296,0.0,0.0,94,0.00,,,0.01,meteohub,2013-02-09 14:53:00,
2013-02-09 06:58:00,29.5,28.0,30.04,WNW,296,0.0,0.0,94,0.00,,,0.01,meteohub,2013-02-09 14:58:00,
2013-02-09 07:04:00,29.5,28.0,30.04,WNW,296,0.0,0.0,94,0.00,,,0.01,meteohub,2013-02-09 15:04:00,
2013-02-09 07:09:00,29.7,28.2,30.05,WNW,296,0.0,1.0,94,0.00,,,0.01,meteohub,2013-02-09 15:09:00,
2013-02-09 07:14:00,29.7,28.2,30.05,WNW,296,0.0,1.0,94,0.00,,,0.01,meteohub,2013-02-09 15:14:00,
2013-02-09 07:19:00,29.7,28.2,30.05,WNW,296,0.0,1.0,94,0.00,,,0.01,meteohub,2013-02-09 15:19:00,
2013-02-09 07:24:00,29.8,28.4,30.06,WNW,296,0.0,0.0,94,0.00,,,0.01,meteohub,2013-02-09 15:24:00,
2013-02-09 07:29:00,29.8,28.4,30.06,WNW,296,0.0,0.0,94,0.00,,,0.01,meteohub,2013-02-09 15:29:00,
2013-02-09 07:34:00,29.7,28.2,30.06,WNW,296,0.0,0.0,94,0.00,,,0.01,meteohub,2013-02-09 15:34:00,
2013-02-09 07:40:00,29.7,28.2,30.06,WNW,296,0.0,0.0,94,0.00,,,0.01,meteohub,2013-02-09 15:40:00,
2013-02-09 07:45:00,29.7,28.2,30.06,WNW,296,0.0,0.0,94,0.00,,,0.01,meteohub,2013-02-09 15:45:00,
2013-02-09 07:50:00,29.7,28.2,30.07,WNW,296,0.0,0.0,94,0.00,,,0.01,meteohub,2013-02-09 15:50:00,
2013-02-09 07:55:00,29.8,28.4,30.07,WNW,296,0.0,0.0,94,0.00,,,0.01,meteohub,2013-02-09 15:55:00,
2013-02-09 08:00:00,29.8,28.6,30.07,WNW,296,0.0,0.0,95,0.00,,,0.01,meteohub,2013-02-09 16:00:00,
2013-02-09 08:05:00,30.0,28.8,30.07,WNW,296,0.0,0.0,95,0.00,,,0.01,meteohub,2013-02-09 16:05:00,
2013-02-09 08:10:00,30.6,29.3,30.07,SSW,196,0.0,0.0,95,0.00,,,0.01,meteohub,2013-02-09 16:10:00,
2013-02-09 08:15:00,30.9,29.7,30.08,SSW,194,0.0,2.0,95,0.00,,,0.01,meteohub,2013-02-09 16:15:00,
2013-02-09 08:21:00,31.5,30.2,30.08,South,191,0.0,2.0,95,0.00,,,0.01,meteohub,2013-02-09 16:21:00,
2013-02-09 08:26:00,31.8,30.6,30.08,South,189,0.0,2.0,95,0.00,,,0.01,meteohub,2013-02-09 16:26:00,
2013-02-09 08:31:00,32.2,30.9,30.09,South,189,0.0,2.0,95,0.00,,,0.01,meteohub,2013-02-09 16:31:00,
2013-02-09 08:36:00,32.4,31.1,30.08,South,189,0.0,2.0,95,0.00,,,0.01,meteohub,2013-02-09 16:36:00,
2013-02-09 08:41:00,33.1,31.8,30.09,South,189,0.0,2.0,95,0.00,,,0.01,meteohub,2013-02-09 16:41:00,
2013-02-09 08:46:00,33.4,32.2,30.09,South,189,0.0,1.0,95,0.00,,,0.01,meteohub,2013-02-09 16:46:00,
2013-02-09 08:51:00,33.8,32.5,30.09,South,188,0.0,1.0,95,0.00,,,0.01,meteohub,2013-02-09 16:51:00,
2013-02-09 08:56:00,34.2,32.9,30.09,South,188,0.0,1.0,95,0.00,,,0.01,meteohub,2013-02-09 16:56:00,
2013-02-09 09:02:00,34.3,33.1,30.09,South,188,0.0,1.0,95,0.00,,,0.01,meteohub,2013-02-09 17:02:00,
2013-02-09 09:07:00,35.1,34.0,30.09,South,188,0.0,1.0,96,0.00,,,0.01,meteohub,2013-02-09 17:07:00,
2013-02-09 09:12:00,35.4,34.3,30.09,South,187,0.0,1.0,96,0.00,,,0.01,meteohub,2013-02-09 17:12:00,
2013-02-09 09:17:00,35.6,34.5,30.09,South,182,0.0,2.0,96,0.00,,,0.01,meteohub,2013-02-09 17:17:00,
2013-02-09 09:22:00,36.1,35.1,30.09,South,177,0.0,2.0,96,0.00,,,0.01,meteohub,2013-02-09 17:22:00,
2013-02-09 09:27:00,36.1,34.9,30.09,South,172,0.0,2.0,95,0.00,,,0.01,meteohub,2013-02-09 17:27:00,
2013-02-09 09:32:00,36.1,34.9,30.10,SSE,166,0.0,3.0,95,0.00,,,0.01,meteohub,2013-02-09 17:32:00,
2013-02-09 09:37:00,36.1,34.9,30.10,SSE,167,1.0,3.0,95,0.00,,,0.01,meteohub,2013-02-09 17:37:00,
2013-02-09 09:42:00,36.7,35.4,30.10,SSE,166,0.0,3.0,95,0.00,,,0.01,meteohub,2013-02-09 17:42:00,
2013-02-09 09:48:00,37.0,36.0,30.10,SSE,167,0.0,3.0,96,0.00,,,0.01,meteohub,2013-02-09 17:48:00,
2013-02-09 09:53:00,37.6,36.3,30.10,SSE,165,0.0,2.0,95,0.00,,,0.01,meteohub,2013-02-09 17:53:00,
2013-02-09 09:58:00,37.9,36.9,30.10,SSE,168,0.0,2.0,96,0.00,,,0.01,meteohub,2013-02-09 17:58:00,
2013-02-09 10:03:00,38.7,37.6,30.10,South,170,1.0,2.0,96,0.00,,,0.01,meteohub,2013-02-09 18:03:00,
2013-02-09 10:08:00,39.4,38.3,30.10,SSE,161,1.0,2.0,96,0.00,,,0.01,meteohub,2013-02-09 18:08:00,
2013-02-09 10:13:00,39.0,37.8,30.10,South,178,0.0,2.0,95,0.00,,,0.01,meteohub,2013-02-09 18:13:00,
2013-02-09 10:18:00,39.4,38.1,30.10,South,190,0.0,3.0,95,0.00,,,0.01,meteohub,2013-02-09 18:18:00,
2013-02-09 10:23:00,39.6,38.3,30.10,South,175,2.0,3.0,95,0.00,,,0.01,meteohub,2013-02-09 18:23:00,
2013-02-09 10:28:00,40.3,39.0,30.10,South,170,1.0,3.0,95,0.00,,,0.01,meteohub,2013-02-09 18:28:00,
2013-02-09 10:33:00,40.8,39.2,30.11,SSE,167,0.0,3.0,94,0.00,,,0.01,meteohub,2013-02-09 18:33:00,
2013-02-09 10:38:00,41.4,39.6,30.11,South,172,0.0,2.0,93,0.00,,,0.01,meteohub,2013-02-09 18:38:00,
2013-02-09 10:43:00,41.5,39.2,30.11,South,184,2.0,2.0,91,0.00,,,0.01,meteohub,2013-02-09 18:43:00,
2013-02-09 10:48:00,42.3,39.7,30.11,South,189,0.0,5.0,91,0.00,,,0.01,meteohub,2013-02-09 18:48:00,
2013-02-09 10:53:00,42.6,39.4,30.11,South,188,0.0,5.0,88,0.00,,,0.01,meteohub,2013-02-09 18:53:00,
2013-02-09 10:58:00,43.3,40.1,30.11,South,190,0.0,5.0,88,0.00,,,0.01,meteohub,2013-02-09 18:58:00,
2013-02-09 11:04:00,43.9,39.9,30.11,SSE,168,0.0,4.0,86,0.00,,,0.01,meteohub,2013-02-09 19:04:00,
2013-02-09 11:09:00,44.4,40.5,30.11,SSE,163,2.0,3.0,86,0.00,,,0.01,meteohub,2013-02-09 19:09:00,
2013-02-09 11:14:00,44.4,39.0,30.11,South,177,2.0,5.0,81,0.00,,,0.01,meteohub,2013-02-09 19:14:00,
2013-02-09 11:19:00,45.0,39.7,30.11,South,179,0.0,5.0,82,0.00,,,0.01,meteohub,2013-02-09 19:19:00,
2013-02-09 11:24:00,45.3,39.2,30.11,WNW,286,0.0,5.0,79,0.00,,,0.01,meteohub,2013-02-09 19:24:00,
2013-02-09 11:30:00,45.7,38.3,30.11,NW,315,0.0,4.0,75,0.00,,,0.01,meteohub,2013-02-09 19:30:00,
2013-02-09 11:35:00,45.9,39.4,30.10,NW,314,0.0,3.0,78,0.00,,,0.01,meteohub,2013-02-09 19:35:00,
2013-02-09 11:40:00,46.2,39.4,30.10,NW,314,0.0,3.0,77,0.00,,,0.01,meteohub,2013-02-09 19:40:00,
2013-02-09 11:45:00,46.9,40.1,30.10,NW,304,0.0,3.0,77,0.00,,,0.01,meteohub,2013-02-09 19:45:00,
2013-02-09 11:50:00,47.1,40.6,30.10,SW,233,0.0,4.0,78,0.00,,,0.01,meteohub,2013-02-09 19:50:00,
2013-02-09 11:55:00,47.8,40.6,30.10,NW,312,0.0,4.0,76,0.00,,,0.01,meteohub,2013-02-09 19:55:00,
2013-02-09 12:01:00,48.0,36.9,30.10,WNW,300,3.0,4.0,65,0.00,,,0.01,meteohub,2013-02-09 20:01:00,
2013-02-09 12:06:00,48.6,37.4,30.09,WNW,303,0.0,5.0,65,0.00,,,0.01,meteohub,2013-02-09 20:06:00,
2013-02-09 12:11:00,49.1,39.4,30.09,NW,304,0.0,5.0,69,0.00,,,0.01,meteohub,2013-02-09 20:11:00,
2013-02-09 12:16:00,49.5,38.7,30.09,SSW,198,0.0,5.0,66,0.00,,,0.01,meteohub,2013-02-09 20:16:00,
2013-02-09 12:21:00,49.6,36.0,30.09,NW,313,1.0,5.0,59,0.00,,,0.01,meteohub,2013-02-09 20:21:00,
2013-02-09 12:26:00,49.6,37.6,30.09,NW,313,0.0,5.0,63,0.00,,,0.01,meteohub,2013-02-09 20:26:00,
2013-02-09 12:31:00,49.8,36.9,30.09,NW,316,0.0,4.0,61,0.00,,,0.01,meteohub,2013-02-09 20:31:00,
2013-02-09 12:36:00,50.4,38.3,30.08,WNW,295,0.0,4.0,63,0.00,,,0.01,meteohub,2013-02-09 20:36:00,
2013-02-09 12:42:00,50.4,36.1,30.08,WNW,300,0.0,4.0,58,0.00,,,0.01,meteohub,2013-02-09 20:42:00,
2013-02-09 12:47:00,50.4,36.1,30.08,WNW,296,0.0,3.0,58,0.00,,,0.01,meteohub,2013-02-09 20:47:00,
2013-02-09 12:52:00,50.7,36.9,30.07,NE,40,0.0,3.0,59,0.00,,,0.01,meteohub,2013-02-09 20:52:00,
2013-02-09 12:57:00,51.1,37.2,30.07,NW,309,0.0,3.0,59,0.00,,,0.01,meteohub,2013-02-09 20:57:00,
2013-02-09 13:02:00,51.3,36.5,30.07,NW,305,0.0,5.0,57,0.00,,,0.01,meteohub,2013-02-09 21:02:00,
2013-02-09 13:08:00,51.4,36.3,30.08,NW,306,1.0,6.0,56,0.00,,,0.01,meteohub,2013-02-09 21:08:00,
2013-02-09 13:13:00,51.3,36.1,30.07,NW,310,0.0,6.0,56,0.00,,,0.01,meteohub,2013-02-09 21:13:00,
2013-02-09 13:18:00,51.1,35.1,30.07,NW,313,0.0,5.0,54,0.00,,,0.01,meteohub,2013-02-09 21:18:00,
2013-02-09 13:23:00,50.7,35.6,30.07,NW,313,0.0,5.0,56,0.00,,,0.01,meteohub,2013-02-09 21:23:00,
2013-02-09 13:28:00,50.5,36.0,30.07,NW,314,0.0,5.0,57,0.00,,,0.01,meteohub,2013-02-09 21:28:00,
2013-02-09 13:33:00,50.5,37.2,30.06,NW,323,3.0,3.0,60,0.00,,,0.01,meteohub,2013-02-09 21:33:00,
2013-02-09 13:38:00,50.7,37.8,30.06,NW,320,0.0,6.0,61,0.00,,,0.01,meteohub,2013-02-09 21:38:00,
2013-02-09 13:43:00,51.3,37.8,30.06,WSW,237,2.0,6.0,60,0.00,,,0.01,meteohub,2013-02-09 21:43:00,
2013-02-09 13:48:00,51.3,37.4,30.06,South,184,0.0,6.0,59,0.00,,,0.01,meteohub,2013-02-09 21:48:00,
2013-02-09 13:53:00,51.3,37.8,30.06,West,278,0.0,3.0,60,0.00,,,0.01,meteohub,2013-02-09 21:53:00,
2013-02-09 13:58:00,51.4,38.5,30.06,West,279,0.0,3.0,61,0.00,,,0.01,meteohub,2013-02-09 21:58:00,
2013-02-09 14:03:00,51.8,40.5,30.06,NW,317,1.0,5.0,65,0.00,,,0.01,meteohub,2013-02-09 22:03:00,
2013-02-09 14:08:00,52.2,39.2,30.06,NW,313,5.0,9.0,61,0.00,,,0.01,meteohub,2013-02-09 22:08:00,
2013-02-09 14:13:00,51.8,39.2,30.06,North,350,0.0,9.0,62,0.00,,,0.01,meteohub,2013-02-09 22:13:00,
2013-02-09 14:18:00,51.1,38.5,30.06,NW,309,0.0,9.0,62,0.00,,,0.01,meteohub,2013-02-09 22:18:00,
2013-02-09 14:23:00,50.5,39.2,30.06,NW,309,0.0,10.0,65,0.00,,,0.01,meteohub,2013-02-09 22:23:00,
2013-02-09 14:28:00,50.2,38.8,30.06,NW,324,0.0,10.0,65,0.00,,,0.01,meteohub,2013-02-09 22:28:00,
2013-02-09 14:33:00,49.6,38.3,30.06,NNW,337,0.0,9.0,65,0.00,,,0.01,meteohub,2013-02-09 22:33:00,
2013-02-09 14:38:00,49.3,37.9,30.06,NNW,329,0.0,9.0,65,0.00,,,0.01,meteohub,2013-02-09 22:38:00,
2013-02-09 14:43:00,48.9,37.8,30.06,NW,315,4.0,9.0,65,0.00,,,0.01,meteohub,2013-02-09 22:43:00,
2013-02-09 14:48:00,48.9,38.1,30.06,NNE,13,0.0,6.0,66,0.00,,,0.01,meteohub,2013-02-09 22:48:00,
2013-02-09 14:53:00,49.6,38.3,30.06,NNW,327,7.0,7.0,65,0.00,,,0.01,meteohub,2013-02-09 22:53:00,
2013-02-09 14:58:00,50.2,38.8,30.06,NW,322,1.0,7.0,65,0.00,,,0.01,meteohub,2013-02-09 22:58:00,
2013-02-09 15:03:00,49.8,36.9,30.06,NNW,337,4.0,12.0,61,0.00,,,0.01,meteohub,2013-02-09 23:03:00,
2013-02-09 15:08:00,49.8,37.4,30.06,NNW,329,0.0,12.0,62,0.00,,,0.01,meteohub,2013-02-09 23:08:00,
2013-02-09 15:13:00,50.0,37.9,30.06,NW,323,5.0,12.0,63,0.00,,,0.01,meteohub,2013-02-09 23:13:00,
2013-02-09 15:18:00,50.2,37.6,30.06,NNW,342,0.0,11.0,62,0.00,,,0.01,meteohub,2013-02-09 23:18:00,
2013-02-09 15:24:00,50.2,37.2,30.06,South,176,1.0,9.0,61,0.00,,,0.01,meteohub,2013-02-09 23:24:00,
2013-02-09 15:29:00,50.2,38.8,30.06,NNW,338,0.0,9.0,65,0.00,,,0.01,meteohub,2013-02-09 23:29:00,
2013-02-09 15:34:00,50.2,38.1,30.06,NW,319,5.0,9.0,63,0.00,,,0.01,meteohub,2013-02-09 23:34:00,
2013-02-09 15:39:00,50.0,38.7,30.06,WNW,294,0.0,11.0,65,0.00,,,0.01,meteohub,2013-02-09 23:39:00,
2013-02-09 15:44:00,49.8,37.8,30.06,SSW,192,0.0,11.0,63,0.00,,,0.01,meteohub,2013-02-09 23:44:00,
2013-02-09 15:49:00,49.6,38.7,30.06,SSE,168,2.0,11.0,66,0.00,,,0.01,meteohub,2013-02-09 23:49:00,
2013-02-09 15:54:00,49.6,38.7,30.06,NW,321,4.0,12.0,66,0.00,,,0.01,meteohub,2013-02-09 23:54:00,
2013-02-09 16:00:00,49.5,38.7,30.06,NW,325,0.0,12.0,66,0.00,,,0.01,meteohub,2013-02-10 00:00:00,
2013-02-09 16:05:00,49.3,38.8,30.06,West,271,0.0,10.0,67,0.00,,,0.01,meteohub,2013-02-10 00:05:00,
2013-02-09 16:10:00,48.9,38.5,30.06,NW,314,1.0,7.0,67,0.00,,,0.01,meteohub,2013-02-10 00:10:00,
2013-02-09 16:15:00,48.6,38.8,30.06,WNW,290,0.0,5.0,69,0.00,,,0.01,meteohub,2013-02-10 00:15:00,
2013-02-09 16:20:00,48.6,39.6,30.07,West,281,2.0,9.0,71,0.00,,,0.01,meteohub,2013-02-10 00:20:00,
2013-02-09 16:25:00,48.4,39.0,30.07,NW,320,2.0,9.0,70,0.00,,,0.01,meteohub,2013-02-10 00:25:00,
2013-02-09 16:31:00,47.7,38.7,30.07,NW,316,3.0,9.0,71,0.00,,,0.01,meteohub,2013-02-10 00:31:00,
2013-02-09 16:36:00,47.5,39.2,30.06,NNW,329,0.0,11.0,73,0.00,,,0.01,meteohub,2013-02-10 00:36:00,
2013-02-09 16:41:00,47.5,38.8,30.06,NNW,331,1.0,11.0,72,0.00,,,0.01,meteohub,2013-02-10 00:41:00,
2013-02-09 16:46:00,46.9,38.7,30.06,South,184,2.0,11.0,73,0.00,,,0.01,meteohub,2013-02-10 00:46:00,
2013-02-09 16:51:00,46.8,38.5,30.06,NNW,327,3.0,9.0,73,0.00,,,0.01,meteohub,2013-02-10 00:51:00,
2013-02-09 16:56:00,46.4,37.9,30.07,NNW,337,6.0,9.0,72,0.00,,,0.01,meteohub,2013-02-10 00:56:00,
2013-02-09 17:01:00,46.2,38.1,30.06,NW,311,0.0,11.0,73,0.00,,,0.01,meteohub,2013-02-10 01:01:00,
2013-02-09 17:07:00,46.0,37.9,30.06,NNW,337,0.0,11.0,73,0.00,,,0.01,meteohub,2013-02-10 01:07:00,
2013-02-09 17:12:00,45.9,38.1,30.07,NNW,333,0.0,9.0,74,0.00,,,0.01,meteohub,2013-02-10 01:12:00,
2013-02-09 17:17:00,45.7,37.9,30.07,NW,318,7.0,11.0,74,0.00,,,0.01,meteohub,2013-02-10 01:17:00,
2013-02-09 17:22:00,45.5,38.1,30.07,NNW,327,4.0,11.0,75,0.00,,,0.01,meteohub,2013-02-10 01:22:00,
2013-02-09 17:27:00,45.3,38.1,30.07,NW,313,2.0,11.0,76,0.00,,,0.01,meteohub,2013-02-10 01:27:00,
2013-02-09 17:32:00,45.0,38.1,30.06,NNW,327,3.0,10.0,77,0.00,,,0.01,meteohub,2013-02-10 01:32:00,
2013-02-09 17:37:00,44.8,38.3,30.06,NW,310,4.0,9.0,78,0.00,,,0.01,meteohub,2013-02-10 01:37:00,
2013-02-09 17:42:00,44.6,38.5,30.06,NNW,333,3.0,10.0,79,0.00,,,0.01,meteohub,2013-02-10 01:42:00,
2013-02-09 17:47:00,44.2,38.8,30.06,NNW,337,2.0,12.0,81,0.00,,,0.01,meteohub,2013-02-10 01:47:00,
2013-02-09 17:53:00,44.1,38.8,30.07,NNW,332,11.0,12.0,82,0.00,,,0.01,meteohub,2013-02-10 01:53:00,
2013-02-09 17:58:00,44.1,38.8,30.07,NW,306,0.0,14.0,82,0.00,,,0.01,meteohub,2013-02-10 01:58:00,
2013-02-09 18:03:00,43.7,38.8,30.07,NNW,345,6.0,14.0,83,0.00,,,0.01,meteohub,2013-02-10 02:03:00,
2013-02-09 18:08:00,43.5,38.7,30.07,NNW,333,6.0,14.0,83,0.00,,,0.01,meteohub,2013-02-10 02:08:00,
2013-02-09 18:13:00,43.3,38.8,30.07,NNW,344,6.0,10.0,84,0.00,,,0.01,meteohub,2013-02-10 02:13:00,
2013-02-09 18:18:00,43.2,39.0,30.08,NNW,333,2.0,9.0,85,0.00,,,0.01,meteohub,2013-02-10 02:18:00,
2013-02-09 18:23:00,42.8,38.7,30.08,NNW,331,3.0,9.0,85,0.00,,,0.01,meteohub,2013-02-10 02:23:00,
2013-02-09 18:28:00,42.6,38.5,30.08,NNW,345,3.0,9.0,85,0.00,,,0.01,meteohub,2013-02-10 02:28:00,
2013-02-09 18:33:00,42.6,38.5,30.07,NW,325,1.0,9.0,85,0.00,,,0.01,meteohub,2013-02-10 02:33:00,
2013-02-09 18:38:00,42.4,38.5,30.07,NNW,330,4.0,8.0,86,0.00,,,0.01,meteohub,2013-02-10 02:38:00,
2013-02-09 18:43:00,42.4,38.5,30.08,NNW,333,3.0,8.0,86,0.00,,,0.01,meteohub,2013-02-10 02:43:00,
2013-02-09 18:48:00,42.3,38.3,30.08,NNW,334,4.0,8.0,86,0.00,,,0.01,meteohub,2013-02-10 02:48:00,
2013-02-09 18:53:00,42.3,38.3,30.08,NNW,340,3.0,6.0,86,0.00,,,0.01,meteohub,2013-02-10 02:53:00,
2013-02-09 18:58:00,42.3,38.3,30.08,NW,324,4.0,6.0,86,0.00,,,0.01,meteohub,2013-02-10 02:58:00,
2013-02-09 19:03:00,42.3,38.7,30.08,NW,326,4.0,6.0,87,0.00,,,0.01,meteohub,2013-02-10 03:03:00,
2013-02-09 19:08:00,42.3,38.7,30.09,NW,323,4.0,6.0,87,0.00,,,0.01,meteohub,2013-02-10 03:08:00,
2013-02-09 19:13:00,42.3,38.7,30.09,NNW,333,5.0,6.0,87,0.00,,,0.01,meteohub,2013-02-10 03:13:00,
2013-02-09 19:18:00,42.3,38.3,30.09,NNW,336,4.0,7.0,86,0.00,,,0.01,meteohub,2013-02-10 03:18:00,
2013-02-09 19:23:00,42.3,38.3,30.09,NW,322,0.0,7.0,86,0.00,,,0.01,meteohub,2013-02-10 03:23:00,
2013-02-09 19:28:00,42.3,38.3,30.09,NW,325,0.0,7.0,86,0.00,,,0.01,meteohub,2013-02-10 03:28:00,
2013-02-09 19:33:00,41.9,38.3,30.09,NNW,335,0.0,6.0,87,0.00,,,0.01,meteohub,2013-02-10 03:33:00,
2013-02-09 19:38:00,41.5,37.9,30.09,NW,319,2.0,6.0,87,0.00,,,0.01,meteohub,2013-02-10 03:38:00,
2013-02-09 19:43:00,41.4,37.8,30.09,NNW,328,0.0,6.0,87,0.00,,,0.01,meteohub,2013-02-10 03:43:00,
2013-02-09 19:48:00,41.2,37.9,30.09,NW,326,0.0,5.0,88,0.00,,,0.01,meteohub,2013-02-10 03:48:00,
2013-02-09 19:53:00,41.0,37.8,30.09,NW,326,0.0,5.0,88,0.00,,,0.01,meteohub,2013-02-10 03:53:00,
2013-02-09 19:58:00,40.8,37.8,30.09,NNW,331,0.0,5.0,89,0.00,,,0.01,meteohub,2013-02-10 03:58:00,
2013-02-09 20:03:00,40.8,37.8,30.09,NW,323,0.0,6.0,89,0.00,,,0.01,meteohub,2013-02-10 04:03:00,
2013-02-09 20:08:00,40.6,37.6,30.09,NW,323,0.0,6.0,89,0.00,,,0.01,meteohub,2013-02-10 04:08:00,
2013-02-09 20:13:00,40.5,37.4,30.09,NW,323,0.0,5.0,89,0.00,,,0.01,meteohub,2013-02-10 04:13:00,
2013-02-09 20:18:00,40.5,37.8,30.09,NW,322,0.0,4.0,90,0.00,,,0.01,meteohub,2013-02-10 04:18:00,
2013-02-09 20:23:00,40.5,37.8,30.09,NW,325,3.0,4.0,90,0.00,,,0.01,meteohub,2013-02-10 04:23:00,
2013-02-09 20:28:00,40.5,37.8,30.09,NNW,333,1.0,5.0,90,0.00,,,0.01,meteohub,2013-02-10 04:28:00,
2013-02-09 20:34:00,40.5,38.1,30.09,NNW,333,0.0,5.0,91,0.00,,,0.01,meteohub,2013-02-10 04:34:00,
2013-02-09 20:39:00,40.3,37.9,30.08,NNW,333,0.0,5.0,91,0.00,,,0.01,meteohub,2013-02-10 04:39:00,
2013-02-09 20:44:00,39.9,37.6,30.09,NNW,333,0.0,4.0,91,0.00,,,0.01,meteohub,2013-02-10 04:44:00,
2013-02-09 20:49:00,39.7,37.0,30.09,NNW,333,0.0,4.0,90,0.00,,,0.01,meteohub,2013-02-10 04:49:00,
2013-02-09 20:55:00,39.4,37.0,30.10,NNW,333,0.0,4.0,91,0.00,,,0.01,meteohub,2013-02-10 04:55:00,
2013-02-09 21:00:00,39.2,36.9,30.10,NNW,333,0.0,4.0,91,0.00,,,0.01,meteohub,2013-02-10 05:00:00,
2013-02-09 21:02:00,39.0,36.7,30.10,NNW,333,0.0,4.0,91,0.00,,,0.01,meteohub,2013-02-10 05:02:00,
2013-02-09 21:06:00,39.0,36.7,30.10,NNW,333,0.0,4.0,91,0.00,,,0.01,meteohub,2013-02-10 05:06:00,
2013-02-09 21:12:00,38.8,36.5,30.10,NNW,333,0.0,0.0,91,0.00,,,0.01,meteohub,2013-02-10 05:12:00,
2013-02-09 21:17:00,38.7,36.3,30.10,NNW,333,0.0,0.0,91,0.00,,,0.01,meteohub,2013-02-10 05:17:00,
2013-02-09 21:22:00,38.3,35.6,30.10,NNW,333,0.0,0.0,90,0.00,,,0.01,meteohub,2013-02-10 05:22:00,
2013-02-09 21:27:00,37.9,35.2,30.11,NNW,333,0.0,0.0,90,0.00,,,0.01,meteohub,2013-02-10 05:27:00,
2013-02-09 21:32:00,37.8,35.4,30.11,NNW,333,0.0,0.0,91,0.00,,,0.01,meteohub,2013-02-10 05:32:00,
2013-02-09 21:37:00,37.6,35.2,30.11,NNW,333,0.0,0.0,91,0.00,,,0.01,meteohub,2013-02-10 05:37:00,
2013-02-09 21:43:00,37.0,34.3,30.12,NNW,333,0.0,0.0,90,0.00,,,0.01,meteohub,2013-02-10 05:43:00,
2013-02-09 21:48:00,36.9,34.5,30.12,NNW,333,0.0,0.0,91,0.00,,,0.01,meteohub,2013-02-10 05:48:00,
2013-02-09 21:53:00,36.7,34.3,30.12,NNW,333,0.0,0.0,91,0.00,,,0.01,meteohub,2013-02-10 05:53:00,
2013-02-09 21:58:00,36.5,34.2,30.12,NNW,333,0.0,0.0,91,0.00,,,0.01,meteohub,2013-02-10 05:58:00,
2013-02-09 22:03:00,36.3,34.0,30.12,NNW,333,0.0,0.0,91,0.00,,,0.01,meteohub,2013-02-10 06:03:00,
2013-02-09 22:08:00,36.3,34.2,30.12,NNW,333,0.0,0.0,92,0.00,,,0.01,meteohub,2013-02-10 06:08:00,
2013-02-09 22:13:00,36.0,33.6,30.12,NNW,333,0.0,0.0,91,0.00,,,0.01,meteohub,2013-02-10 06:13:00,
2013-02-09 22:18:00,35.8,33.4,30.12,NNW,333,0.0,0.0,91,0.00,,,0.01,meteohub,2013-02-10 06:18:00,
2013-02-09 22:23:00,35.4,33.1,30.12,NNW,333,0.0,0.0,91,0.00,,,0.01,meteohub,2013-02-10 06:23:00,
2013-02-09 22:28:00,35.4,33.3,30.12,NNW,333,0.0,0.0,92,0.00,,,0.01,meteohub,2013-02-10 06:28:00,
2013-02-09 22:33:00,35.2,33.1,30.13,NNW,333,0.0,0.0,92,0.00,,,0.01,meteohub,2013-02-10 06:33:00,
2013-02-09 22:38:00,35.2,33.1,30.12,NNW,333,0.0,0.0,92,0.00,,,0.01,meteohub,2013-02-10 06:38:00,
2013-02-09 22:43:00,35.2,33.1,30.12,NNW,333,0.0,0.0,92,0.00,,,0.01,meteohub,2013-02-10 06:43:00,
2013-02-09 22:48:00,35.2,33.1,30.12,NNW,333,0.0,0.0,92,0.00,,,0.01,meteohub,2013-02-10 06:48:00,
2013-02-09 22:54:00,35.1,32.9,30.12,NNW,333,0.0,0.0,92,0.00,,,0.01,meteohub,2013-02-10 06:54:00,
2013-02-09 22:59:00,35.1,32.9,30.12,NNW,333,0.0,0.0,92,0.00,,,0.01,meteohub,2013-02-10 06:59:00,
2013-02-09 23:04:00,34.9,32.7,30.12,NNW,333,0.0,0.0,92,0.00,,,0.01,meteohub,2013-02-10 07:04:00,
2013-02-09 23:09:00,34.5,32.4,30.12,NNW,333,0.0,0.0,92,0.00,,,0.01,meteohub,2013-02-10 07:09:00,
2013-02-09 23:15:00,34.3,32.2,30.12,NNW,333,0.0,0.0,92,0.00,,,0.01,meteohub,2013-02-10 07:15:00,
2013-02-09 23:20:00,34.3,32.2,30.13,NNW,333,0.0,0.0,92,0.00,,,0.01,meteohub,2013-02-10 07:20:00,
2013-02-09 23:25:00,34.3,32.2,30.13,NNW,333,0.0,0.0,92,0.00,,,0.01,meteohub,2013-02-10 07:25:00,
2013-02-09 23:30:00,34.2,32.0,30.13,NNW,333,0.0,0.0,92,0.00,,,0.01,meteohub,2013-02-10 07:30:00,
2013-02-09 23:35:00,34.0,31.8,30.12,NNW,333,0.0,0.0,92,0.00,,,0.01,meteohub,2013-02-10 07:35:00,
2013-02-09 23:41:00,33.6,31.5,30.13,NNW,333,0.0,1.0,92,0.00,,,0.01,meteohub,2013-02-10 07:41:00,
2013-02-09 23:46:00,33.6,31.8,30.13,NNW,333,0.0,1.0,93,0.00,,,0.01,meteohub,2013-02-10 07:46:00,
2013-02-09 23:51:00,34.2,32.4,30.13,NNW,333,0.0,1.0,93,0.00,,,0.01,meteohub,2013-02-10 07:51:00,
2013-02-09 23:56:00,34.3,32.7,30.13,NNW,333,0.0,0.0,94,0.00,,,0.01,meteohub,2013-02-10 07:56:00,